地図

経路データ

SID SEASON NUMBER BASIN SUBBASIN NAME ISO_TIME NATURE LAT LON WMO_WIND WMO_PRES WMO_AGENCY TRACK_TYPE DIST2LAND LANDFALL IFLAG USA_AGENCY USA_ATCF_ID USA_LAT USA_LON USA_RECORD USA_STATUS USA_WIND USA_PRES USA_SSHS USA_R34_NE USA_R34_SE USA_R34_SW USA_R34_NW USA_R50_NE USA_R50_SE USA_R50_SW USA_R50_NW USA_R64_NE USA_R64_SE USA_R64_SW USA_R64_NW USA_POCI USA_ROCI USA_RMW USA_EYE TOKYO_LAT TOKYO_LON TOKYO_GRADE TOKYO_WIND TOKYO_PRES TOKYO_R50_DIR TOKYO_R50_LONG TOKYO_R50_SHORT TOKYO_R30_DIR TOKYO_R30_LONG TOKYO_R30_SHORT TOKYO_LAND CMA_LAT CMA_LON CMA_CAT CMA_WIND CMA_PRES HKO_LAT HKO_LON HKO_CAT HKO_WIND HKO_PRES NEWDELHI_LAT NEWDELHI_LON NEWDELHI_GRADE NEWDELHI_WIND NEWDELHI_PRES NEWDELHI_CI NEWDELHI_DP NEWDELHI_POCI REUNION_LAT REUNION_LON REUNION_TYPE REUNION_WIND REUNION_PRES REUNION_TNUM REUNION_CI REUNION_RMW REUNION_R34_NE REUNION_R34_SE REUNION_R34_SW REUNION_R34_NW REUNION_R50_NE REUNION_R50_SE REUNION_R50_SW REUNION_R50_NW REUNION_R64_NE REUNION_R64_SE REUNION_R64_SW REUNION_R64_NW BOM_LAT BOM_LON BOM_TYPE BOM_WIND BOM_PRES BOM_TNUM BOM_CI BOM_RMW BOM_R34_NE BOM_R34_SE BOM_R34_SW BOM_R34_NW BOM_R50_NE BOM_R50_SE BOM_R50_SW BOM_R50_NW BOM_R64_NE BOM_R64_SE BOM_R64_SW BOM_R64_NW BOM_ROCI BOM_POCI BOM_EYE BOM_POS_METHOD BOM_PRES_METHOD NADI_LAT NADI_LON NADI_CAT NADI_WIND NADI_PRES WELLINGTON_LAT WELLINGTON_LON WELLINGTON_WIND WELLINGTON_PRES DS824_LAT DS824_LON DS824_STAGE DS824_WIND DS824_PRES TD9636_LAT TD9636_LON TD9636_STAGE TD9636_WIND TD9636_PRES TD9635_LAT TD9635_LON TD9635_WIND TD9635_PRES TD9635_ROCI NEUMANN_LAT NEUMANN_LON NEUMANN_CLASS NEUMANN_WIND NEUMANN_PRES MLC_LAT MLC_LON MLC_CLASS MLC_WIND MLC_PRES USA_GUST BOM_GUST BOM_GUST_PER REUNION_GUST REUNION_GUST_PER USA_SEAHGT USA_SEARAD_NE USA_SEARAD_SE USA_SEARAD_SW USA_SEARAD_NW STORM_SPEED STORM_DIR
1913218N23090 1913 35 NI BB NOT_NAMED 1913-08-06 00:00:00 TS 23.0000 90.1000 main 0 0 _________O____ -1 23.0000 90.1000 TC 30 4 332
1913218N23090 1913 35 NI BB NOT_NAMED 1913-08-06 03:00:00 TS 23.1717 90.0034 main 0 0 _________PO___ -1 23.2575 89.9551 TC 30 23.0000 90.1000 1 5 331
1913218N23090 1913 35 NI BB NOT_NAMED 1913-08-06 06:00:00 TS 23.3968 89.8638 main 0 0 _________OP___ -1 23.5000 89.8000 TC 30 23.2420 89.9595 1 5 328
1913218N23090 1913 35 NI BB NOT_NAMED 1913-08-06 09:00:00 TS 23.6131 89.7007 main 0 0 _________PP___ -1 23.7149 89.6224 TC 30 23.4772 89.8051 1 5 321
1913218N23090 1913 35 NI BB NOT_NAMED 1913-08-06 12:00:00 TS 23.7994 89.5116 main 0 0 _________OP___ -1 23.9000 89.4000 TC 30 23.6988 89.6231 1 6 312
1913218N23090 1913 35 NI BB NOT_NAMED 1913-08-06 15:00:00 TS 23.9825 89.2500 main 0 0 _________PO___ -1 24.0651 89.1000 TC 30 23.9000 89.4000 1 6 304
1913218N23090 1913 35 NI BB NOT_NAMED 1913-08-06 18:00:00 TS 24.1372 88.9655 main 0 0 _________OP___ -1 24.2000 88.8000 TC 30 24.0744 89.1311 1 6 300
1913218N23090 1913 35 NI BB NOT_NAMED 1913-08-06 21:00:00 TS 24.2702 88.7014 main 0 0 _________PP___ -1 24.3225 88.5550 TC 30 24.2180 88.8477 1 5 298
1913218N23090 1913 35 NI BB NOT_NAMED 1913-08-07 00:00:00 TS 24.3638 88.4952 main 0 0 _________OP___ -1 24.4000 88.4000 TC 30 24.3275 88.5905 1 3 295
1913218N23090 1913 35 NI BB NOT_NAMED 1913-08-07 03:00:00 TS 24.4075 88.3850 main 0 0 _________PO___ -1 24.4150 88.3699 TC 30 24.4000 88.4000 1 1 294
1913218N23090 1913 35 NI BB NOT_NAMED 1913-08-07 06:00:00 TS 24.4178 88.3639 main 0 0 _________OP___ -1 24.4000 88.4000 TC 30 24.4357 88.3278 1 0 0
1913218N23090 1913 35 NI BB NOT_NAMED 1913-08-07 09:00:00 TS 24.4186 88.3624 main 0 0 _________PP___ -1 24.4000 88.4000 TC 30 24.4372 88.3247 1 0 0
1913218N23090 1913 35 NI BB NOT_NAMED 1913-08-07 12:00:00 TS 24.4101 88.3796 main 0 0 _________OP___ -1 24.4000 88.4000 TC 30 24.4202 88.3592 1 0 118
1913218N23090 1913 35 NI BB NOT_NAMED 1913-08-07 15:00:00 TS 24.4000 88.4000 main 0 0 _________PO___ -1 24.4000 88.4000 TC 30 24.4000 88.4000 1 0 118
1913218N23090 1913 35 NI BB NOT_NAMED 1913-08-07 18:00:00 TS 24.3918 88.4202 main 0 0 _________OP___ -1 24.4000 88.4000 TC 30 24.3836 88.4405 1 1 119
1913218N23090 1913 35 NI BB NOT_NAMED 1913-08-07 21:00:00 TS 24.3811 88.4524 main 0 0 _________PP___ -1 24.3925 88.4300 TC 30 24.3697 88.4747 1 0 0
1913218N23090 1913 35 NI BB NOT_NAMED 1913-08-08 00:00:00 TS 24.3855 88.4358 main 0 0 _________OP___ -1 24.4000 88.4000 TC 30 24.3710 88.4716 1 1 285
1913218N23090 1913 35 NI BB NOT_NAMED 1913-08-08 03:00:00 TS 24.4137 88.3225 main 0 0 _________PO___ -1 24.4275 88.2449 TC 30 24.4000 88.4000 1 3 289
1913218N23090 1913 35 NI BB NOT_NAMED 1913-08-08 06:00:00 TS 24.4898 88.1071 main 0 0 _________OP___ -1 24.5000 88.0000 TC 30 24.4797 88.2141 1 5 294
1913218N23090 1913 35 NI BB NOT_NAMED 1913-08-08 09:00:00 TS 24.6178 87.8304 main 0 0 _________PP___ -1 24.6501 87.7002 TC 30 24.5855 87.9605 1 6 297
1913218N23090 1913 35 NI BB NOT_NAMED 1913-08-08 12:00:00 TS 24.7492 87.5383 main 0 0 _________OP___ -1 24.8000 87.4000 TC 30 24.6984 87.6766 1 5 294
1913218N23090 1913 35 NI BB NOT_NAMED 1913-08-08 15:00:00 TS 24.8325 87.2924 main 0 0 _________PO___ -1 24.8649 87.1849 TC 30 24.8000 87.4000 1 4 288
1913218N23090 1913 35 NI BB NOT_NAMED 1913-08-08 18:00:00 TS 24.8760 87.0967 main 0 0 _________OP___ -1 24.9000 87.0000 TC 30 24.8519 87.1934 1 4 283
1913218N23090 1913 35 NI BB NOT_NAMED 1913-08-08 21:00:00 TS 24.9173 86.9034 main 0 0 _________PP___ -1 24.9424 86.8074 TC 30 24.8921 86.9994 1 4 285
1913218N23090 1913 35 NI BB NOT_NAMED 1913-08-09 00:00:00 TS 24.9681 86.7029 main 0 0 _________OP___ -1 25.0000 86.6000 TC 30 24.9363 86.8058 1 4 288
1913218N23090 1913 35 NI BB NOT_NAMED 1913-08-09 03:00:00 TS 25.0425 86.4787 main 0 0 _________PO___ -1 25.0850 86.3575 TC 30 25.0000 86.6000 1 5 292
1913218N23090 1913 35 NI BB NOT_NAMED 1913-08-09 06:00:00 TS 25.1519 86.2040 main 0 0 _________OP___ -1 25.2000 86.1000 TC 30 25.1038 86.3080 1 6 295
1913218N23090 1913 35 NI BB NOT_NAMED 1913-08-09 09:00:00 TS 25.2853 85.9080 main 0 0 _________PP___ -1 25.3426 85.8052 TC 30 25.2280 86.0108 1 6 300
1913218N23090 1913 35 NI BB NOT_NAMED 1913-08-09 12:00:00 TS 25.4316 85.6790 main 0 0 _________OP___ -1 25.5000 85.6000 TC 30 25.3631 85.7581 1 4 316
1913218N23090 1913 35 NI BB NOT_NAMED 1913-08-09 15:00:00 TS 25.5787 85.5949 main 0 0 _________PO___ -1 25.6574 85.5899 TC 30 25.5000 85.6000 1 3 353
1913218N23090 1913 35 NI BB NOT_NAMED 1913-08-09 18:00:00 TS 25.7225 85.6413 main 0 0 _________OP___ -1 25.8000 85.7000 TC 30 25.6450 85.5826 1 3 27
1913218N23090 1913 35 NI BB NOT_NAMED 1913-08-09 21:00:00 TS 25.8548 85.7459 main 0 0 _________PP___ -1 25.9225 85.8274 TC 30 25.7872 85.6643 1 3 46
1913218N23090 1913 35 NI BB NOT_NAMED 1913-08-10 00:00:00 TS 25.9554 85.9069 main 0 0 _________OP___ -1 26.0000 86.0000 TC 30 25.9108 85.8139 1 4 64
1913218N23090 1913 35 NI BB NOT_NAMED 1913-08-10 03:00:00 TS 26.0075 86.0963 main 0 0 _________PO___ -1 26.0150 86.1926 TC 30 26.0000 86.0000 1 3 80
1913218N23090 1913 35 NI BB NOT_NAMED 1913-08-10 06:00:00 TS 26.0180 86.2857 main 0 0 _________OP___ -1 26.0000 86.4000 TC 30 26.0360 86.1714 1 3 88
1913218N23090 1913 35 NI BB NOT_NAMED 1913-08-10 09:00:00 TS 26.0188 86.4814 main 0 0 _________PP___ -1 25.9999 86.5925 TC 30 26.0376 86.3702 1 4 91
1913218N23090 1913 35 NI BB NOT_NAMED 1913-08-10 12:00:00 TS 26.0102 86.6920 main 0 0 _________OP___ -1 26.0000 86.8000 TC 30 26.0204 86.5839 1 4 93
1913218N23090 1913 35 NI BB NOT_NAMED 1913-08-10 15:00:00 TS 26.0000 86.9288 main 0 0 _________PO___ -1 26.0001 87.0575 TC 30 26.0000 86.8000 1 4 91
1913218N23090 1913 35 NI BB NOT_NAMED 1913-08-10 18:00:00 TS 26.0000 87.1500 main 0 0 _________OP___ -1 26.0000 87.3000 TC 30 25.9999 87.0000 1 4 90
1913218N23090 1913 35 NI BB NOT_NAMED 1913-08-10 21:00:00 TS 25.9999 87.3288 main 0 0 _________PP___ -1 25.9999 87.4575 TC 30 25.9999 87.2000 1 3 90
1913218N23090 1913 35 NI BB NOT_NAMED 1913-08-11 00:00:00 TS 26.0000 87.5000 main 0 0 _________OP___ -1 26.0000 87.6000 TC 30 25.9999 87.4000 1 3 90
1913218N23090 1913 35 NI BB NOT_NAMED 1913-08-11 03:00:00 TS 26.0000 87.6962 main 0 0 _________PO___ -1 26.0000 87.7925 TC 30 26.0000 87.6000 1 4 90
1913218N23090 1913 35 NI BB NOT_NAMED 1913-08-11 06:00:00 TS 26.0000 87.9041 main 0 0 _________OP___ -1 26.0000 88.0000 TC 30 26.0000 87.8081 1 4 90
1913218N23090 1913 35 NI BB NOT_NAMED 1913-08-11 09:00:00 TS 26.0000 88.1113 main 0 0 _________PP___ -1 26.0000 88.2075 TC 30 26.0000 88.0150 1 4 90
1913218N23090 1913 35 NI BB NOT_NAMED 1913-08-11 12:00:00 TS 26.0000 88.3072 main 0 0 _________OP___ -1 26.0000 88.4000 TC 30 26.0000 88.2144 1 3 90
1913218N23090 1913 35 NI BB NOT_NAMED 1913-08-11 15:00:00 TS 26.0000 88.4787 main 0 0 _________PO___ -1 26.0000 88.5575 TC 30 26.0000 88.4000 1 3 90
1913218N23090 1913 35 NI BB NOT_NAMED 1913-08-11 18:00:00 TS 26.0000 88.6243 main 0 0 _________OP___ -1 26.0000 88.7000 TC 30 26.0000 88.5675 1 3 90
1913218N23090 1913 35 NI BB NOT_NAMED 1913-08-11 21:00:00 TS 26.0000 88.7710 main 0 0 _________PP___ -1 26.0000 88.8475 TC 30 26.0000 88.7200 1 3 90
1913218N23090 1913 35 NI BB NOT_NAMED 1913-08-12 00:00:00 TS 26.0000 88.9083 main 0 0 _________OP___ -1 26.0000 89.0000 TC 30 26.0000 88.8625 1 2 90
1913218N23090 1913 35 NI BB NOT_NAMED 1913-08-12 03:00:00 NR 26.0000 89.0000 main 0 __________O___ -1 TC 26.0000 89.0000 1 2 90

IBTrACS Databaseについて

本データベースは、米国NOAAが公開する1842年以降の世界の熱帯低気圧のベストトラックデータアーカイブInternational Best Track Archive for Climate Stewardship (IBTrACS)を、ウェブで閲覧しやすい形式に変換したものです。

最終更新日:2021-11-26